Latest Weather Observations for Outer Harbor (Black Pole)

IDS60801

Issued at 1:35 pm CST Saturday 30 August 2014 (issued every 30 minutes, with the page automatically refreshed every 10 minutes)

About weather observations | Map of weather stations | Latest weather observations for SA | Other Formats
Station Details ID: 023052 Name: BLACK POLE Lat: -34.73 Lon: 138.47 Height: 8.0 m
Data from the previous 72 hours. | See also: Recent months for locations in South Australia
Date/Time
CST
Temp
°C
App
Temp
°C
Dew
Point
Rel
Hum
%
Delta-T
°C
Wind Press
QNH
hPa
Press
MSL
hPa
Rain
since 9 am
mm
Dir
 
Spd
km/h
Gust
km/h
Spd
kts
Gust
kts
30/01:30pm - - - - - WSW 6 9 3 5 - - -
30/01:00pm - - - - - NNW 0 4 0 2 - - -
30/12:30pm - - - - - W 9 11 5 6 - - -
30/12:00pm - - - - - WNW 9 11 5 6 - - -
30/11:30am - - - - - WNW 7 9 4 5 - - -
30/11:00am - - - - - N 4 6 2 3 - - -
30/10:30am - - - - - NNE 11 13 6 7 - - -
30/10:00am - - - - - NE 11 11 6 6 - - -
30/09:30am - - - - - NNE 13 17 7 9 - - -
30/09:00am - - - - - NNE 15 19 8 10 - - -
30/08:30am - - - - - NNE 13 17 7 9 - - -
30/08:00am - - - - - N 17 19 9 10 - - -
30/07:30am - - - - - N 15 19 8 10 - - -
30/07:00am - - - - - NNE 15 19 8 10 - - -
30/06:30am - - - - - NE 15 19 8 10 - - -
30/06:00am - - - - - NNE 19 22 10 12 - - -
30/05:30am - - - - - N 15 19 8 10 - - -
30/05:00am - - - - - N 15 19 8 10 - - -
30/04:30am - - - - - N 13 17 7 9 - - -
30/04:00am - - - - - N 11 13 6 7 - - -
30/03:30am - - - - - N 13 17 7 9 - - -
30/03:00am - - - - - N 13 15 7 8 - - -
30/02:30am - - - - - NNE 17 20 9 11 - - -
30/02:00am - - - - - NNE 15 19 8 10 - - -
30/01:30am - - - - - NNE 17 20 9 11 - - -
30/01:00am - - - - - NNE 9 13 5 7 - - -
30/12:30am - - - - - N 6 7 3 4 - - -
30/12:00am - - - - - NNE 9 11 5 6 - - -
 
Date/Time
CST
Temp
°C
App
Temp
°C
Dew
Point
Rel
Hum
%
Delta-T
°C
Wind Press
QNH
hPa
Press
MSL
hPa
Rain
since 9 am
mm
Dir
 
Spd
km/h
Gust
km/h
Spd
kts
Gust
kts
29/11:30pm - - - - - NE 9 13 5 7 - - -
29/11:00pm - - - - - ENE 15 17 8 9 - - -
29/10:30pm - - - - - E 13 15 7 8 - - -
29/10:00pm - - - - - ENE 11 13 6 7 - - -
29/09:30pm - - - - - E 7 11 4 6 - - -
29/09:00pm - - - - - SW 6 6 3 3 - - -
29/08:30pm - - - - - S 6 6 3 3 - - -
29/08:00pm - - - - - S 6 7 3 4 - - -
29/07:30pm - - - - - S 7 9 4 5 - - -
29/07:00pm - - - - - S 9 13 5 7 - - -
29/06:30pm - - - - - S 13 15 7 8 - - -
29/06:00pm - - - - - S 15 17 8 9 - - -
29/05:30pm - - - - - S 15 17 8 9 - - -
29/05:00pm - - - - - S 13 15 7 8 - - -
29/04:30pm - - - - - S 13 13 7 7 - - -
29/04:00pm - - - - - SW 13 13 7 7 - - -
29/03:30pm - - - - - SSW 13 15 7 8 - - -
29/03:00pm - - - - - S 13 15 7 8 - - -
29/02:30pm - - - - - SSW 13 13 7 7 - - -
29/02:00pm - - - - - SW 11 11 6 6 - - -
29/01:30pm - - - - - W 7 9 4 5 - - -
29/01:00pm - - - - - WNW 11 13 6 7 - - -
29/12:30pm - - - - - WNW 9 11 5 6 - - -
29/12:00pm - - - - - NW 11 13 6 7 - - -
29/11:30am - - - - - WNW 13 17 7 9 - - -
29/11:00am - - - - - NNE 9 11 5 6 - - -
29/10:30am - - - - - NNE 9 9 5 5 - - -
29/10:00am - - - - - NNE 9 11 5 6 - - -
29/09:30am - - - - - N 7 11 4 6 - - -
29/09:00am - - - - - NNE 7 11 4 6 - - -
29/08:30am - - - - - NNE 13 15 7 8 - - -
29/08:00am - - - - - NNE 11 13 6 7 - - -
29/07:30am - - - - - NNE 13 15 7 8 - - -
29/07:00am - - - - - NE 17 19 9 10 - - -
29/06:30am - - - - - NE 17 19 9 10 - - -
29/06:00am - - - - - NE 17 20 9 11 - - -
29/05:30am - - - - - NNE 15 20 8 11 - - -
29/05:00am - - - - - N 13 17 7 9 - - -
29/04:30am - - - - - N 11 13 6 7 - - -
29/04:00am - - - - - NNE 13 19 7 10 - - -
29/03:30am - - - - - N 17 20 9 11 - - -
29/03:00am - - - - - N 15 17 8 9 - - -
29/02:30am - - - - - N 15 17 8 9 - - -
29/02:00am - - - - - N 13 15 7 8 - - -
29/01:30am - - - - - N 7 9 4 5 - - -
29/01:00am - - - - - N 6 7 3 4 - - -
29/12:30am - - - - - ENE 9 11 5 6 - - -
29/12:00am - - - - - NE 11 13 6 7 - - -
 
Date/Time
CST
Temp
°C
App
Temp
°C
Dew
Point
Rel
Hum
%
Delta-T
°C
Wind Press
QNH
hPa
Press
MSL
hPa
Rain
since 9 am
mm
Dir
 
Spd
km/h
Gust
km/h
Spd
kts
Gust
kts
28/11:30pm - - - - - ENE 11 15 6 8 - - -
28/11:00pm - - - - - NE 9 11 5 6 - - -
28/10:30pm - - - - - E 9 11 5 6 - - -
28/10:00pm - - - - - ESE 11 13 6 7 - - -
28/09:30pm - - - - - SE 13 15 7 8 - - -
28/09:00pm - - - - - SE 11 13 6 7 - - -
28/08:30pm - - - - - SSE 13 15 7 8 - - -
28/08:00pm - - - - - SSE 11 13 6 7 - - -
28/07:30pm - - - - - SE 7 9 4 5 - - -
28/07:00pm - - - - - SE 7 9 4 5 - - -
28/06:30pm - - - - - SE 9 11 5 6 - - -
28/06:00pm - - - - - SE 7 9 4 5 - - -
28/05:30pm - - - - - SSE 11 13 6 7 - - -
28/05:00pm - - - - - S 13 13 7 7 - - -
28/04:30pm - - - - - S 11 13 6 7 - - -
28/04:00pm - - - - - SW 11 13 6 7 - - -
28/03:30pm - - - - - WSW 13 13 7 7 - - -
28/03:00pm - - - - - WSW 9 11 5 6 - - -
28/02:30pm - - - - - WSW 9 11 5 6 - - -
28/02:00pm - - - - - WSW 9 11 5 6 - - -
28/01:30pm - - - - - WSW 11 13 6 7 - - -
28/01:00pm - - - - - WSW 13 15 7 8 - - -
28/12:30pm - - - - - WSW 13 15 7 8 - - -
28/12:00pm - - - - - WSW 13 15 7 8 - - -
28/11:30am - - - - - WNW 6 9 3 5 - - -
28/11:00am - - - - - NNE 4 6 2 3 - - -
28/10:30am - - - - - NNE 4 6 2 3 - - -
28/10:00am - - - - - NE 7 9 4 5 - - -
28/09:30am - - - - - NE 11 11 6 6 - - -
28/09:00am - - - - - ENE 13 15 7 8 - - -
28/08:30am - - - - - NE 13 15 7 8 - - -
28/08:00am - - - - - NNE 13 15 7 8 - - -
28/07:30am - - - - - N 15 17 8 9 - - -
28/07:00am - - - - - N 17 20 9 11 - - -
28/06:30am - - - - - N 13 15 7 8 - - -
28/06:00am - - - - - N 11 13 6 7 - - -
28/05:30am - - - - - N 11 13 6 7 - - -
28/05:00am - - - - - N 9 11 5 6 - - -
28/04:30am - - - - - N 11 13 6 7 - - -
28/04:00am - - - - - N 11 13 6 7 - - -
28/03:30am - - - - - NNE 11 15 6 8 - - -
28/03:00am - - - - - NNE 13 15 7 8 - - -
28/02:30am - - - - - NNE 13 15 7 8 - - -
28/02:00am - - - - - N 9 11 5 6 - - -
28/01:30am - - - - - N 11 15 6 8 - - -
28/01:00am - - - - - NE 9 11 5 6 - - -
28/12:30am - - - - - ENE 7 9 4 5 - - -
28/12:00am - - - - - NE 7 11 4 6 - - -
 
Date/Time
CST
Temp
°C
App
Temp
°C
Dew
Point
Rel
Hum
%
Delta-T
°C
Wind Press
QNH
hPa
Press
MSL
hPa
Rain
since 9 am
mm
Dir
 
Spd
km/h
Gust
km/h
Spd
kts
Gust
kts
27/11:30pm - - - - - NE 11 13 6 7 - - -
27/11:00pm - - - - - ENE 9 11 5 6 - - -
27/10:30pm - - - - - E 7 7 4 4 - - -
27/10:00pm - - - - - ESE 4 6 2 3 - - -
27/09:30pm - - - - - SE 6 7 3 4 - - -
27/09:00pm - - - - - SE 7 9 4 5 - - -
27/08:30pm - - - - - SSE 9 11 5 6 - - -
27/08:00pm - - - - - S 9 11 5 6 - - -
27/07:30pm - - - - - S 9 11 5 6 - - -
27/07:00pm - - - - - S 13 15 7 8 - - -
27/06:30pm - - - - - S 11 13 6 7 - - -
27/06:00pm - - - - - S 11 13 6 7 - - -
27/05:30pm - - - - - SSE 11 13 6 7 - - -
27/05:00pm - - - - - S 15 17 8 9 - - -
27/04:30pm - - - - - SSW 17 20 9 11 - - -
27/04:00pm - - - - - SSW 13 13 7 7 - - -
27/03:30pm - - - - - SSW 15 17 8 9 - - -
27/03:00pm - - - - - SW 13 17 7 9 - - -
27/02:30pm - - - - - WSW 11 15 6 8 - - -
27/02:00pm - - - - - WSW 9 13 5 7 - - -

Other Formats:

Comma delimited format used in spreadsheet applications
http://www.bom.gov.au/fwo/IDS60801/IDS60801.95675.axf

JavaScript Object Notation format (JSON) in row-major order
http://www.bom.gov.au/fwo/IDS60801/IDS60801.95675.json